Time;durP1;ratioP1;P1;durP2;ratioP2;P2;SDS_P1;SDS_P2;PMS_P1;PMS_P2;Temp;Humidity;BMP_temperature;BMP_pressure;BME280_temperature;BME280_humidity;BME280_pressure;Samples;Min_cycle;Max_cycle;Signal;HPM_P1;HPM_P2
2023/04/22 00:01:48;;;;;;;;;;;12.00;99.90;;;;;;5074830;28;19924;-71
2023/04/22 00:04:13;;;;;;;;;;;12.00;99.90;;;;;;5074488;28;19985;-71
2023/04/22 00:06:39;;;;;;;;;;;12.10;99.90;;;;;;5075563;28;20322;-72
2023/04/22 00:09:04;;;;;;;;;;;12.10;99.90;;;;;;5074093;28;19932;-72
2023/04/22 00:11:30;;;;;;;;;;;12.00;99.90;;;;;;5075241;28;19933;-72
2023/04/22 00:13:55;;;;;;;;;;;12.00;99.90;;;;;;5059030;28;19932;-72
2023/04/22 00:16:21;;;;;;;;;;;11.90;99.90;;;;;;5071135;28;19925;-72
2023/04/22 00:18:47;;;;;;;;;;;11.90;99.90;;;;;;5047664;28;20008;-72
2023/04/22 00:21:13;;;;;;;;;;;11.90;99.90;;;;;;5054839;28;19925;-72
2023/04/22 00:23:38;;;;;;;;;;;11.90;99.90;;;;;;5054264;28;19925;-72
2023/04/22 00:26:04;;;;;;;;;;;11.80;99.90;;;;;;5050683;28;19957;-72
2023/04/22 00:28:30;;;;;;;;;;;11.80;99.90;;;;;;5035129;28;20024;-72
2023/04/22 00:30:57;;;;;;;;;;;11.80;99.90;;;;;;5046780;28;19925;-70
2023/04/22 00:33:23;;;;;;;;;;;11.70;99.90;;;;;;5049032;28;19932;-72
2023/04/22 00:35:48;;;;;;;;;;;11.70;99.90;;;;;;5053829;28;19924;-72
2023/04/22 00:38:14;;;;;;;;;;;11.60;99.90;;;;;;5054156;28;19972;-72
2023/04/22 00:40:39;;;;;;;;;;;11.60;99.90;;;;;;5052088;28;19929;-72
2023/04/22 00:43:07;;;;;;;;;;;11.60;99.90;;;;;;5054045;28;20031;-71
2023/04/22 00:45:32;;;;;;;;;;;11.50;99.90;;;;;;5043404;28;19925;-71
2023/04/22 00:47:58;;;;;;;;;;;11.50;99.90;;;;;;5055421;28;20008;-71
2023/04/22 00:50:24;;;;;;;;;;;11.40;99.90;;;;;;5052278;28;19971;-71
2023/04/22 00:52:50;;;;;;;;;;;11.40;99.90;;;;;;5054342;28;20377;-72
2023/04/22 00:55:15;;;;;;;;;;;11.30;99.90;;;;;;5047371;28;20039;-71
2023/04/22 00:57:41;;;;;;;;;;;11.30;99.90;;;;;;5052592;28;19924;-71
2023/04/22 01:00:08;;;;;;;;;;;11.20;99.90;;;;;;5053920;28;19968;-71
2023/04/22 01:02:35;;;;;;;;;;;11.20;99.90;;;;;;5053101;28;19932;-71
2023/04/22 01:05:02;;;;;;;;;;;11.10;99.90;;;;;;5050652;28;20302;-72
2023/04/22 01:07:28;;;;;;;;;;;11.10;99.90;;;;;;5071550;28;19971;-72
2023/04/22 01:09:54;;;;;;;;;;;11.10;99.90;;;;;;5060239;28;19972;-71
2023/04/22 01:12:19;;;;;;;;;;;11.00;99.90;;;;;;5051775;28;19928;-71
2023/04/22 01:14:45;;;;;;;;;;;11.00;99.90;;;;;;5053298;28;19925;-71
2023/04/22 01:17:12;;;;;;;;;;;10.90;99.90;;;;;;5053348;28;20007;-71
2023/04/22 01:19:38;;;;;;;;;;;10.90;99.90;;;;;;5044504;28;19976;-72
2023/04/22 01:22:04;;;;;;;;;;;10.80;99.90;;;;;;5036753;28;20343;-71
2023/04/22 01:24:30;;;;;;;;;;;10.80;99.90;;;;;;5051604;28;19968;-71
2023/04/22 01:26:55;;;;;;;;;;;10.80;99.90;;;;;;5053366;28;19936;-71
2023/04/22 01:29:21;;;;;;;;;;;10.80;99.90;;;;;;5051283;28;20359;-71
2023/04/22 01:31:47;;;;;;;;;;;10.70;99.90;;;;;;5054264;28;19970;-72
2023/04/22 01:34:15;;;;;;;;;;;10.70;99.90;;;;;;5052763;28;20390;-72
2023/04/22 01:36:41;;;;;;;;;;;10.70;99.90;;;;;;5048237;28;20462;-72
2023/04/22 01:39:06;;;;;;;;;;;10.80;99.90;;;;;;5050726;28;20063;-72
2023/04/22 01:41:33;;;;;;;;;;;10.70;99.90;;;;;;5053232;28;19936;-72
2023/04/22 01:43:59;;;;;;;;;;;10.60;99.90;;;;;;5053009;28;20259;-72
2023/04/22 01:46:24;;;;;;;;;;;10.60;99.90;;;;;;5052724;28;19924;-71
2023/04/22 01:48:50;;;;;;;;;;;10.70;99.90;;;;;;5049577;28;19924;-71
2023/04/22 01:51:16;;;;;;;;;;;10.50;99.90;;;;;;5048162;28;20056;-71
2023/04/22 01:53:42;;;;;;;;;;;10.50;99.90;;;;;;5033578;28;19925;-71
2023/04/22 01:56:08;;;;;;;;;;;10.40;99.90;;;;;;5048641;28;19932;-71
2023/04/22 01:58:34;;;;;;;;;;;10.40;99.90;;;;;;5043412;28;19931;-71
2023/04/22 02:01:00;;;;;;;;;;;10.40;99.90;;;;;;5047633;28;20022;-71
2023/04/22 02:03:25;;;;;;;;;;;10.30;99.90;;;;;;5033040;28;19976;-71
2023/04/22 02:05:51;;;;;;;;;;;10.30;99.90;;;;;;5040560;28;19933;-71
2023/04/22 02:08:16;;;;;;;;;;;10.20;99.90;;;;;;5038645;28;19925;-71
2023/04/22 02:10:42;;;;;;;;;;;10.20;99.90;;;;;;5051991;28;19929;-71
2023/04/22 02:13:07;;;;;;;;;;;10.10;99.90;;;;;;5052460;28;19928;-71
2023/04/22 02:15:33;;;;;;;;;;;10.10;99.90;;;;;;5053108;28;20024;-71
2023/04/22 02:17:58;;;;;;;;;;;10.00;99.90;;;;;;5058539;28;19924;-71
2023/04/22 02:20:24;;;;;;;;;;;10.00;99.90;;;;;;5072319;28;19925;-71
2023/04/22 02:22:50;;;;;;;;;;;9.90;99.90;;;;;;5072727;28;19931;-72
2023/04/22 02:25:15;;;;;;;;;;;9.90;99.90;;;;;;5071952;28;19924;-71
2023/04/22 02:27:41;;;;;;;;;;;9.90;99.90;;;;;;5072967;28;19978;-71
2023/04/22 02:30:07;;;;;;;;;;;9.90;99.90;;;;;;5056457;28;19931;-71
2023/04/22 02:32:35;;;;;;;;;;;9.80;99.90;;;;;;5051740;28;19971;-71
2023/04/22 02:35:00;;;;;;;;;;;9.80;99.90;;;;;;5057683;28;19924;-71
2023/04/22 02:37:26;;;;;;;;;;;9.70;99.90;;;;;;5060816;28;20001;-71
2023/04/22 02:39:51;;;;;;;;;;;9.80;99.90;;;;;;5072097;28;19935;-71
2023/04/22 02:42:17;;;;;;;;;;;9.80;99.90;;;;;;5071753;28;19924;-71
2023/04/22 02:44:43;;;;;;;;;;;9.80;99.90;;;;;;5066815;28;20405;-71
2023/04/22 02:47:11;;;;;;;;;;;9.80;99.90;;;;;;5071846;28;19924;-71
2023/04/22 02:49:36;;;;;;;;;;;9.80;99.90;;;;;;5068315;28;19968;-71
2023/04/22 02:52:02;;;;;;;;;;;9.80;99.90;;;;;;5069705;28;19986;-71
2023/04/22 02:54:27;;;;;;;;;;;9.80;99.90;;;;;;5065960;28;20006;-71
2023/04/22 02:56:53;;;;;;;;;;;9.80;99.90;;;;;;5071717;28;19924;-71
2023/04/22 02:59:18;;;;;;;;;;;9.80;99.90;;;;;;5071959;28;19932;-72
2023/04/22 03:01:44;;;;;;;;;;;9.80;99.90;;;;;;5072283;28;19924;-72
2023/04/22 03:04:11;;;;;;;;;;;9.80;99.90;;;;;;5066116;28;20394;-72
2023/04/22 03:06:36;;;;;;;;;;;9.70;99.90;;;;;;5075748;28;19978;-71
2023/04/22 03:09:02;;;;;;;;;;;9.70;99.90;;;;;;5076305;28;20378;-71
2023/04/22 03:11:27;;;;;;;;;;;9.60;99.90;;;;;;5075228;28;19925;-73
2023/04/22 03:13:53;;;;;;;;;;;9.60;99.90;;;;;;5076576;28;20285;-71
2023/04/22 03:16:21;;;;;;;;;;;9.60;99.90;;;;;;5074502;28;19928;-72
2023/04/22 03:18:47;;;;;;;;;;;9.60;99.90;;;;;;5054880;28;19998;-71
2023/04/22 03:21:12;;;;;;;;;;;9.50;99.90;;;;;;5072336;28;19924;-71
2023/04/22 03:23:38;;;;;;;;;;;9.50;99.90;;;;;;5057799;28;20345;-71
2023/04/22 03:26:03;;;;;;;;;;;9.50;99.90;;;;;;5073384;28;19990;-71
2023/04/22 03:28:29;;;;;;;;;;;9.40;99.90;;;;;;5055983;28;19928;-71
2023/04/22 03:30:54;;;;;;;;;;;9.40;99.90;;;;;;5063960;28;19925;-71
2023/04/22 03:33:22;;;;;;;;;;;9.30;99.90;;;;;;5072057;28;19936;-71
2023/04/22 03:35:48;;;;;;;;;;;9.30;99.90;;;;;;5073794;28;20015;-71
2023/04/22 03:38:14;;;;;;;;;;;9.40;99.90;;;;;;5075198;28;20740;-71
2023/04/22 03:40:41;;;;;;;;;;;9.30;99.90;;;;;;5074879;28;19931;-71
2023/04/22 03:43:06;;;;;;;;;;;9.20;99.90;;;;;;5074982;28;19925;-71
2023/04/22 03:45:32;;;;;;;;;;;9.20;99.90;;;;;;5073572;28;19933;-70
2023/04/22 03:47:57;;;;;;;;;;;9.10;99.90;;;;;;5073683;28;19967;-71
2023/04/22 03:50:23;;;;;;;;;;;9.10;99.90;;;;;;5059159;28;19925;-71
2023/04/22 03:52:49;;;;;;;;;;;9.10;99.90;;;;;;5055627;28;20294;-71
2023/04/22 03:55:14;;;;;;;;;;;9.00;99.90;;;;;;5066639;28;19924;-71
2023/04/22 03:57:40;;;;;;;;;;;9.00;99.90;;;;;;5072274;28;19925;-71
2023/04/22 04:00:06;;;;;;;;;;;9.00;99.90;;;;;;5074064;28;19924;-71
2023/04/22 04:02:31;;;;;;;;;;;8.90;99.90;;;;;;5082127;28;20002;-72
2023/04/22 04:04:57;;;;;;;;;;;8.90;99.90;;;;;;5075257;28;19946;-71
2023/04/22 04:07:22;;;;;;;;;;;8.90;99.90;;;;;;5074770;28;20370;-72
2023/04/22 04:09:48;;;;;;;;;;;8.80;99.90;;;;;;5056931;28;20294;-72
2023/04/22 04:12:16;;;;;;;;;;;8.80;99.90;;;;;;5074720;28;19924;-72
2023/04/22 04:14:42;;;;;;;;;;;8.80;99.90;;;;;;5087854;28;20058;-72
2023/04/22 04:17:12;;;;;;;;;;;8.80;99.90;;;;;;5075116;28;19925;-72
2023/04/22 04:19:38;;;;;;;;;;;8.80;99.90;;;;;;5073423;28;19924;-72
2023/04/22 04:22:04;;;;;;;;;;;8.70;99.90;;;;;;5074915;28;19931;-72
2023/04/22 04:24:29;;;;;;;;;;;8.80;99.90;;;;;;5074660;28;19930;-71
2023/04/22 04:26:56;;;;;;;;;;;8.70;99.90;;;;;;5073924;28;19924;-72
2023/04/22 04:29:22;;;;;;;;;;;8.80;99.90;;;;;;5071888;28;19978;-72
2023/04/22 04:31:48;;;;;;;;;;;8.80;99.90;;;;;;5069213;28;19929;-71
2023/04/22 04:34:13;;;;;;;;;;;8.80;99.90;;;;;;5063775;28;19932;-71
2023/04/22 04:36:39;;;;;;;;;;;8.70;99.90;;;;;;5075254;28;20289;-71
2023/04/22 04:39:05;;;;;;;;;;;8.60;99.90;;;;;;5071038;28;19929;-71
2023/04/22 04:41:32;;;;;;;;;;;8.60;99.90;;;;;;5054081;28;19960;-70
2023/04/22 04:43:59;;;;;;;;;;;8.70;99.90;;;;;;5071187;28;20003;-71
2023/04/22 04:46:25;;;;;;;;;;;8.60;99.90;;;;;;5074329;28;20016;-71
2023/04/22 04:48:52;;;;;;;;;;;8.60;99.90;;;;;;5075014;28;19928;-71
2023/04/22 04:51:18;;;;;;;;;;;8.60;99.90;;;;;;5073266;28;19924;-71
2023/04/22 04:53:43;;;;;;;;;;;8.60;99.90;;;;;;5075679;28;19932;-71
2023/04/22 04:56:09;;;;;;;;;;;8.60;99.90;;;;;;5073746;28;19924;-71
2023/04/22 04:58:35;;;;;;;;;;;8.60;99.90;;;;;;5080101;28;19969;-71
2023/04/22 05:01:00;;;;;;;;;;;8.60;99.90;;;;;;5076916;28;19925;-71
2023/04/22 05:03:26;;;;;;;;;;;8.60;99.90;;;;;;5074788;28;20290;-71
2023/04/22 05:05:51;;;;;;;;;;;8.70;99.90;;;;;;5040085;28;20279;-71
2023/04/22 05:08:17;;;;;;;;;;;8.70;99.90;;;;;;5055994;28;19924;-71
2023/04/22 05:10:43;;;;;;;;;;;8.80;99.90;;;;;;5052863;28;19970;-71
2023/04/22 05:13:09;;;;;;;;;;;8.80;99.90;;;;;;5053439;28;19970;-70
2023/04/22 05:15:35;;;;;;;;;;;8.80;99.90;;;;;;5054243;28;19924;-70
2023/04/22 05:18:01;;;;;;;;;;;8.90;99.90;;;;;;5061891;28;19929;-70
2023/04/22 05:20:26;;;;;;;;;;;9.00;99.90;;;;;;5068804;28;19929;-70
2023/04/22 05:22:52;;;;;;;;;;;9.00;99.90;;;;;;5055459;28;19929;-71
2023/04/22 05:25:17;;;;;;;;;;;9.10;99.90;;;;;;5072368;28;19934;-71
2023/04/22 05:27:43;;;;;;;;;;;9.10;99.90;;;;;;5069740;28;20139;-71
2023/04/22 05:30:09;;;;;;;;;;;9.10;99.90;;;;;;5072346;28;19924;-71
2023/04/22 05:32:34;;;;;;;;;;;9.10;99.90;;;;;;5073305;28;19925;-71
2023/04/22 05:35:00;;;;;;;;;;;9.10;99.90;;;;;;5072704;28;19924;-71
2023/04/22 05:37:25;;;;;;;;;;;9.10;99.90;;;;;;5070599;28;19928;-71
2023/04/22 05:39:51;;;;;;;;;;;9.20;99.90;;;;;;5069710;28;19947;-70
2023/04/22 05:42:16;;;;;;;;;;;9.10;99.90;;;;;;5072709;28;19947;-70
2023/04/22 05:44:42;;;;;;;;;;;9.30;99.90;;;;;;5069624;28;20007;-71
2023/04/22 05:47:07;;;;;;;;;;;9.30;99.90;;;;;;5071069;28;19936;-71
2023/04/22 05:49:33;;;;;;;;;;;9.30;99.90;;;;;;5054004;28;19939;-71
2023/04/22 05:51:58;;;;;;;;;;;9.40;99.90;;;;;;5073326;28;19931;-71
2023/04/22 05:54:24;;;;;;;;;;;9.50;99.90;;;;;;5063161;28;19963;-71
2023/04/22 05:56:50;;;;;;;;;;;9.50;99.90;;;;;;5068341;28;19930;-71
2023/04/22 05:59:15;;;;;;;;;;;9.70;99.90;;;;;;5072133;28;19925;-71
2023/04/22 06:01:41;;;;;;;;;;;9.70;99.90;;;;;;5041860;28;19968;-71
2023/04/22 06:04:08;;;;;;;;;;;9.70;99.90;;;;;;5053217;28;20358;-71
2023/04/22 06:06:35;;;;;;;;;;;9.80;99.90;;;;;;5046846;28;20632;-71
2023/04/22 06:09:00;;;;;;;;;;;9.90;99.90;;;;;;5072598;28;19932;-70
2023/04/22 06:11:26;;;;;;;;;;;10.00;99.90;;;;;;5072992;28;19924;-70
2023/04/22 06:13:52;;;;;;;;;;;9.90;99.90;;;;;;5070783;28;19929;-70
2023/04/22 06:16:18;;;;;;;;;;;9.90;99.90;;;;;;5049046;28;19931;-71
2023/04/22 06:18:43;;;;;;;;;;;10.10;99.90;;;;;;5037812;28;20347;-71
2023/04/22 06:21:09;;;;;;;;;;;10.10;99.90;;;;;;5063799;28;19970;-70
2023/04/22 06:23:34;;;;;;;;;;;10.10;99.90;;;;;;5071145;28;20393;-71
2023/04/22 06:26:00;;;;;;;;;;;10.10;99.90;;;;;;5069322;28;19982;-70
2023/04/22 06:28:26;;;;;;;;;;;10.20;99.90;;;;;;5051456;28;19979;-71
2023/04/22 06:30:52;;;;;;;;;;;10.30;99.90;;;;;;5070818;28;19936;-70
2023/04/22 06:33:17;;;;;;;;;;;10.30;99.90;;;;;;5072831;28;19924;-71
2023/04/22 06:35:43;;;;;;;;;;;10.30;99.90;;;;;;5071074;28;19963;-71
2023/04/22 06:38:08;;;;;;;;;;;10.40;99.90;;;;;;5071691;28;20274;-71
2023/04/22 06:40:34;;;;;;;;;;;10.50;99.90;;;;;;5053588;28;19968;-71
2023/04/22 06:42:59;;;;;;;;;;;10.60;99.90;;;;;;5067569;28;20286;-70
2023/04/22 06:45:25;;;;;;;;;;;10.70;99.90;;;;;;5067373;28;19928;-70
2023/04/22 06:47:51;;;;;;;;;;;10.80;99.90;;;;;;5072153;28;19999;-70
2023/04/22 06:50:17;;;;;;;;;;;10.90;99.90;;;;;;5053116;28;20298;-70
2023/04/22 06:52:42;;;;;;;;;;;10.90;99.90;;;;;;5072239;28;19985;-70
2023/04/22 06:55:08;;;;;;;;;;;11.00;99.90;;;;;;5070852;28;19978;-70
2023/04/22 06:57:34;;;;;;;;;;;11.00;99.90;;;;;;5066554;28;19924;-70
2023/04/22 06:59:59;;;;;;;;;;;11.10;99.90;;;;;;5070316;28;19928;-70
2023/04/22 07:02:25;;;;;;;;;;;11.10;99.90;;;;;;5050349;28;20378;-71
2023/04/22 07:04:51;;;;;;;;;;;11.20;99.90;;;;;;5059803;28;20049;-71
2023/04/22 07:07:17;;;;;;;;;;;11.30;99.90;;;;;;5064655;28;19936;-71
2023/04/22 07:09:42;;;;;;;;;;;11.40;99.90;;;;;;5049068;28;20322;-71
2023/04/22 07:12:08;;;;;;;;;;;11.40;99.90;;;;;;5069925;28;19999;-71
2023/04/22 07:14:34;;;;;;;;;;;11.50;99.90;;;;;;5065804;28;19932;-71
2023/04/22 07:16:59;;;;;;;;;;;11.50;99.90;;;;;;5064726;28;20355;-71
2023/04/22 07:19:25;;;;;;;;;;;11.60;99.90;;;;;;5071804;28;20000;-71
2023/04/22 07:21:51;;;;;;;;;;;11.60;99.90;;;;;;5044372;28;19925;-71
2023/04/22 07:24:16;;;;;;;;;;;11.70;99.90;;;;;;5065041;28;20612;-72
2023/04/22 07:26:43;;;;;;;;;;;11.80;99.90;;;;;;5068405;28;19924;-70
2023/04/22 07:29:09;;;;;;;;;;;11.80;99.90;;;;;;5071773;28;20278;-72
2023/04/22 07:31:35;;;;;;;;;;;11.90;99.90;;;;;;5052386;28;19929;-70
2023/04/22 07:34:01;;;;;;;;;;;11.90;99.90;;;;;;5064090;28;19931;-70
2023/04/22 07:36:26;;;;;;;;;;;12.00;99.90;;;;;;5071234;28;19924;-71
2023/04/22 07:38:52;;;;;;;;;;;12.10;99.90;;;;;;5070826;28;20014;-71
2023/04/22 07:41:17;;;;;;;;;;;12.20;99.90;;;;;;5068354;28;19925;-69
2023/04/22 07:43:43;;;;;;;;;;;12.30;99.90;;;;;;5051554;28;19925;-71
2023/04/22 07:46:08;;;;;;;;;;;12.30;99.90;;;;;;5071296;28;19924;-71
2023/04/22 07:48:34;;;;;;;;;;;12.40;99.90;;;;;;5069690;28;19967;-72
2023/04/22 07:50:59;;;;;;;;;;;12.60;99.90;;;;;;5067419;28;19932;-70
2023/04/22 07:53:25;;;;;;;;;;;12.60;99.90;;;;;;5051222;28;19925;-71
2023/04/22 07:55:50;;;;;;;;;;;13.30;99.90;;;;;;5065372;28;19925;-71
2023/04/22 07:58:16;;;;;;;;;;;12.70;99.90;;;;;;5068920;28;19925;-71
2023/04/22 08:00:42;;;;;;;;;;;12.80;99.90;;;;;;5073980;28;20382;-71
2023/04/22 08:03:07;;;;;;;;;;;12.80;99.90;;;;;;5065129;28;20239;-70
2023/04/22 08:05:33;;;;;;;;;;;12.90;99.90;;;;;;5070833;28;19932;-71
2023/04/22 08:08:01;;;;;;;;;;;13.00;99.90;;;;;;5073431;28;20014;-71
2023/04/22 08:10:26;;;;;;;;;;;13.10;99.90;;;;;;5050197;28;20413;-71
2023/04/22 08:12:52;;;;;;;;;;;13.20;99.90;;;;;;5060013;28;19928;-71
2023/04/22 08:15:18;;;;;;;;;;;13.30;99.90;;;;;;5059238;28;20346;-72
2023/04/22 08:17:43;;;;;;;;;;;13.40;99.90;;;;;;5056640;28;19924;-70
2023/04/22 08:20:09;;;;;;;;;;;13.60;99.90;;;;;;5071861;28;19927;-72
2023/04/22 08:22:35;;;;;;;;;;;13.70;99.90;;;;;;5052866;28;20254;-71
2023/04/22 08:25:01;;;;;;;;;;;13.80;99.90;;;;;;5071180;28;20011;-71
2023/04/22 08:27:26;;;;;;;;;;;13.90;99.90;;;;;;5071792;28;19932;-71
2023/04/22 08:29:52;;;;;;;;;;;14.00;99.90;;;;;;5045541;28;19936;-71
2023/04/22 08:32:22;;;;;;;;;;;14.10;99.90;;;;;;5070839;28;19931;-71
2023/04/22 08:34:47;;;;;;;;;;;14.20;99.90;;;;;;5069180;28;20450;-72
2023/04/22 08:37:13;;;;;;;;;;;14.40;99.90;;;;;;5055145;28;19925;-71
2023/04/22 08:39:38;;;;;;;;;;;14.60;99.90;;;;;;5039768;28;19939;-71
2023/04/22 08:42:04;;;;;;;;;;;14.80;99.90;;;;;;5057196;28;19994;-72
2023/04/22 08:44:30;;;;;;;;;;;15.00;99.90;;;;;;5073427;28;19930;-71
2023/04/22 08:46:56;;;;;;;;;;;15.30;99.90;;;;;;5072583;28;19928;-71
2023/04/22 08:49:22;;;;;;;;;;;15.50;99.90;;;;;;5055256;28;20310;-72
2023/04/22 08:51:48;;;;;;;;;;;15.80;99.90;;;;;;5048662;28;19929;-71
2023/04/22 08:54:15;;;;;;;;;;;16.00;99.90;;;;;;5053332;28;19931;-70
2023/04/22 08:56:42;;;;;;;;;;;16.20;99.90;;;;;;5072208;28;19925;-70
2023/04/22 08:59:08;;;;;;;;;;;16.30;99.90;;;;;;5073287;28;20037;-70
2023/04/22 09:01:34;;;;;;;;;;;16.40;99.90;;;;;;5072541;28;20089;-70
2023/04/22 09:04:00;;;;;;;;;;;16.60;99.90;;;;;;5068710;28;20484;-70
2023/04/22 09:06:26;;;;;;;;;;;16.70;99.90;;;;;;5074180;28;20019;-70
2023/04/22 09:08:53;;;;;;;;;;;16.90;99.90;;;;;;5072947;28;20402;-70
2023/04/22 09:11:18;;;;;;;;;;;17.00;99.90;;;;;;5054072;28;19932;-70
2023/04/22 09:13:44;;;;;;;;;;;17.00;99.90;;;;;;5074609;28;19924;-71
2023/04/22 09:16:09;;;;;;;;;;;17.00;99.90;;;;;;5067231;28;19925;-70
2023/04/22 09:18:47;;;;;;;;;;;17.00;99.90;;;;;;5053847;28;20314;-70
2023/04/22 09:21:13;;;;;;;;;;;17.00;99.90;;;;;;5036090;28;19921;-70
2023/04/22 09:23:45;;;;;;;;;;;17.20;99.90;;;;;;5071425;28;19947;-70
2023/04/22 09:26:11;;;;;;;;;;;17.40;99.90;;;;;;5073849;28;19931;-70
2023/04/22 09:28:37;;;;;;;;;;;17.60;99.90;;;;;;5073371;28;19924;-70
2023/04/22 09:31:02;;;;;;;;;;;17.90;99.90;;;;;;5073088;28;19925;-70
2023/04/22 09:33:30;;;;;;;;;;;18.00;99.90;;;;;;5057393;28;20393;-70
2023/04/22 09:35:55;;;;;;;;;;;18.20;99.90;;;;;;5054369;28;20003;-70
2023/04/22 09:38:21;;;;;;;;;;;18.40;99.90;;;;;;5053457;28;19960;-71
2023/04/22 09:40:46;;;;;;;;;;;18.50;99.90;;;;;;5062983;28;19928;-70
2023/04/22 09:43:16;;;;;;;;;;;18.70;99.90;;;;;;5072948;28;19925;-70
2023/04/22 09:45:42;;;;;;;;;;;18.90;99.90;;;;;;5072467;28;20293;-70
2023/04/22 09:48:08;;;;;;;;;;;19.10;99.90;;;;;;5046457;28;19925;-69
2023/04/22 09:50:34;;;;;;;;;;;19.20;99.90;;;;;;5038376;28;19968;-69
2023/04/22 09:53:01;;;;;;;;;;;19.50;99.90;;;;;;5070372;28;20329;-70
2023/04/22 09:55:29;;;;;;;;;;;19.70;99.90;;;;;;5052016;28;19924;-70
2023/04/22 09:57:55;;;;;;;;;;;19.90;99.90;;;;;;5046500;28;19924;-70
2023/04/22 10:00:23;;;;;;;;;;;19.80;99.90;;;;;;5071485;28;19932;-70
2023/04/22 10:02:49;;;;;;;;;;;19.60;99.90;;;;;;5064694;28;19931;-70
2023/04/22 10:05:14;;;;;;;;;;;19.60;99.90;;;;;;5053361;28;19925;-70
2023/04/22 10:07:41;;;;;;;;;;;19.50;99.90;;;;;;5071606;28;20011;-71
2023/04/22 10:10:09;;;;;;;;;;;19.50;99.90;;;;;;5073711;28;19991;-71
2023/04/22 10:12:35;;;;;;;;;;;19.60;99.90;;;;;;5072551;28;19931;-71
2023/04/22 10:15:02;;;;;;;;;;;19.60;99.90;;;;;;5040060;28;19924;-70
2023/04/22 10:17:30;;;;;;;;;;;19.50;99.90;;;;;;5072468;28;19928;-71
2023/04/22 10:19:57;;;;;;;;;;;19.40;99.90;;;;;;5066957;28;20015;-70
2023/04/22 10:22:22;;;;;;;;;;;19.40;99.90;;;;;;5054686;28;19925;-71
2023/04/22 10:24:49;;;;;;;;;;;19.50;99.90;;;;;;5044916;28;19931;-70
2023/04/22 10:27:19;;;;;;;;;;;19.70;99.90;;;;;;5052575;28;19925;-70
2023/04/22 10:29:45;;;;;;;;;;;19.90;99.90;;;;;;5053122;28;19969;-70
2023/04/22 10:32:17;;;;;;;;;;;20.20;99.90;;;;;;5065846;28;19974;-70
2023/04/22 10:34:45;;;;;;;;;;;20.40;99.90;;;;;;5072593;28;19925;-70
2023/04/22 10:37:11;;;;;;;;;;;20.50;99.90;;;;;;5037962;28;19925;-71
2023/04/22 10:39:38;;;;;;;;;;;20.60;99.90;;;;;;5054407;28;19924;-71
2023/04/22 10:42:08;;;;;;;;;;;20.80;99.90;;;;;;5071750;28;20394;-70
2023/04/22 10:44:44;;;;;;;;;;;20.90;99.90;;;;;;5072319;28;20286;-70
2023/04/22 10:47:10;;;;;;;;;;;20.90;99.90;;;;;;5049752;28;20404;-70
2023/04/22 10:49:35;;;;;;;;;;;20.90;99.90;;;;;;5054921;28;19979;-70
2023/04/22 10:52:03;;;;;;;;;;;21.00;99.90;;;;;;5071663;28;20294;-70
2023/04/22 10:54:30;;;;;;;;;;;21.20;99.90;;;;;;5053173;28;20019;-71
2023/04/22 10:57:03;;;;;;;;;;;21.70;99.90;;;;;;5072268;28;20401;-70
2023/04/22 10:59:29;;;;;;;;;;;22.00;99.90;;;;;;5057575;28;19948;-70
2023/04/22 11:02:02;;;;;;;;;;;22.30;99.90;;;;;;5059302;28;19977;-70
2023/04/22 11:04:27;;;;;;;;;;;22.50;99.90;;;;;;5071445;28;19978;-71
2023/04/22 11:07:12;;;;;;;;;;;22.50;98.70;;;;;;5072529;28;19925;-70
2023/04/22 11:09:42;;;;;;;;;;;22.60;99.40;;;;;;5069632;28;19970;-70
2023/04/22 11:12:26;;;;;;;;;;;22.90;98.30;;;;;;5048536;28;20011;-71
2023/04/22 11:14:52;;;;;;;;;;;23.00;97.40;;;;;;5063822;28;20436;-71
2023/04/22 11:17:18;;;;;;;;;;;23.30;97.50;;;;;;5070784;28;19924;-71
2023/04/22 11:19:45;;;;;;;;;;;23.40;96.80;;;;;;5063350;28;19972;-70
2023/04/22 11:22:11;;;;;;;;;;;23.50;96.20;;;;;;5067257;28;19924;-71
2023/04/22 11:24:36;;;;;;;;;;;23.60;94.10;;;;;;5056595;28;19932;-71
2023/04/22 11:27:04;;;;;;;;;;;23.90;96.00;;;;;;5075659;28;19975;-70
2023/04/22 11:29:29;;;;;;;;;;;23.90;94.80;;;;;;5057425;28;20349;-71
2023/04/22 11:31:58;;;;;;;;;;;23.80;93.20;;;;;;5073230;28;19928;-71
2023/04/22 11:34:24;;;;;;;;;;;24.00;94.20;;;;;;5073187;28;19931;-71
2023/04/22 11:36:49;;;;;;;;;;;24.10;93.30;;;;;;5075468;28;19924;-71
2023/04/22 11:39:17;;;;;;;;;;;24.30;93.20;;;;;;5055806;28;20124;-72
2023/04/22 11:41:42;;;;;;;;;;;24.20;92.20;;;;;;5057581;28;19932;-71
2023/04/22 11:44:08;;;;;;;;;;;24.10;93.40;;;;;;5066481;28;19940;-71
2023/04/22 11:46:39;;;;;;;;;;;24.00;92.90;;;;;;5075295;28;19924;-70
2023/04/22 11:49:14;;;;;;;;;;;23.90;93.50;;;;;;5073760;28;19925;-71
2023/04/22 11:51:55;;;;;;;;;;;23.60;92.40;;;;;;5075550;28;20297;-71
2023/04/22 11:54:31;;;;;;;;;;;23.60;93.00;;;;;;5074868;28;19931;-71
2023/04/22 11:56:56;;;;;;;;;;;24.00;92.70;;;;;;5074442;28;19925;-71
2023/04/22 11:59:25;;;;;;;;;;;23.90;92.30;;;;;;5074343;28;19932;-71
2023/04/22 12:01:51;;;;;;;;;;;24.00;93.10;;;;;;5071127;28;19933;-71
2023/04/22 12:04:19;;;;;;;;;;;24.30;92.70;;;;;;5055188;28;20025;-71
2023/04/22 12:06:45;;;;;;;;;;;24.80;92.90;;;;;;5056430;28;19929;-70
2023/04/22 12:09:11;;;;;;;;;;;25.10;90.50;;;;;;5071428;28;19931;-71
2023/04/22 12:11:37;;;;;;;;;;;25.40;90.60;;;;;;5056494;28;20026;-70
2023/04/22 12:14:06;;;;;;;;;;;25.50;90.50;;;;;;5055612;28;19932;-71
2023/04/22 12:16:42;;;;;;;;;;;25.40;89.40;;;;;;5068206;28;19924;-71
2023/04/22 12:19:07;;;;;;;;;;;25.10;86.90;;;;;;5054268;28;20374;-71
2023/04/22 12:21:33;;;;;;;;;;;24.50;87.40;;;;;;5072662;28;19924;-71
2023/04/22 12:23:58;;;;;;;;;;;24.20;87.90;;;;;;5071455;28;19955;-71
2023/04/22 12:26:25;;;;;;;;;;;23.90;88.20;;;;;;5071980;28;20027;-71
2023/04/22 12:28:54;;;;;;;;;;;23.40;89.60;;;;;;5054063;28;19974;-71
2023/04/22 12:31:22;;;;;;;;;;;23.00;90.60;;;;;;5068812;28;19928;-70
2023/04/22 12:33:48;;;;;;;;;;;22.60;90.90;;;;;;5073325;28;19938;-71
2023/04/22 12:36:16;;;;;;;;;;;22.50;92.20;;;;;;5073166;28;19970;-71
2023/04/22 12:38:41;;;;;;;;;;;22.20;91.80;;;;;;5055148;28;19991;-71
2023/04/22 12:41:07;;;;;;;;;;;21.90;92.60;;;;;;5067738;28;20030;-70
2023/04/22 12:43:35;;;;;;;;;;;21.80;92.90;;;;;;5069937;28;20347;-71
2023/04/22 12:46:05;;;;;;;;;;;21.60;93.80;;;;;;5070093;28;19976;-70
2023/04/22 12:48:31;;;;;;;;;;;22.10;94.50;;;;;;5036975;28;20026;-70
2023/04/22 12:50:57;;;;;;;;;;;22.80;93.30;;;;;;5054516;28;19939;-71
2023/04/22 12:53:22;;;;;;;;;;;23.50;92.90;;;;;;5054253;28;19925;-70
2023/04/22 12:55:48;;;;;;;;;;;23.70;91.90;;;;;;5066953;28;20122;-70
2023/04/22 12:58:14;;;;;;;;;;;23.70;92.20;;;;;;5054261;28;19932;-70
2023/04/22 13:00:39;;;;;;;;;;;23.50;91.60;;;;;;5048147;28;19932;-70
2023/04/22 13:03:05;;;;;;;;;;;23.40;91.60;;;;;;5055104;28;19924;-70
2023/04/22 13:05:31;;;;;;;;;;;23.20;92.20;;;;;;5044057;28;19925;-70
2023/04/22 13:07:56;;;;;;;;;;;23.00;91.80;;;;;;5053329;28;20285;-70
2023/04/22 13:10:22;;;;;;;;;;;22.80;92.20;;;;;;5062856;28;20015;-71
2023/04/22 13:12:47;;;;;;;;;;;22.50;92.50;;;;;;5072188;28;19932;-71
2023/04/22 13:15:13;;;;;;;;;;;22.30;93.20;;;;;;5061165;28;20041;-71
2023/04/22 13:17:39;;;;;;;;;;;22.20;94.00;;;;;;5073494;28;19924;-71
2023/04/22 13:20:05;;;;;;;;;;;22.20;93.70;;;;;;5026717;28;19927;-71
2023/04/22 13:22:31;;;;;;;;;;;22.10;94.10;;;;;;5027761;28;19924;-70
2023/04/22 13:24:57;;;;;;;;;;;22.10;93.80;;;;;;5073648;28;19924;-73
2023/04/22 13:27:23;;;;;;;;;;;22.10;94.10;;;;;;5055797;28;19924;-71
2023/04/22 13:29:48;;;;;;;;;;;21.90;94.10;;;;;;5054628;28;19924;-71
2023/04/22 13:32:14;;;;;;;;;;;21.90;95.20;;;;;;5037818;28;19925;-71
2023/04/22 13:34:39;;;;;;;;;;;22.10;94.60;;;;;;5053505;28;19932;-69
2023/04/22 13:37:05;;;;;;;;;;;22.30;94.30;;;;;;5072062;28;19925;-69
2023/04/22 13:39:31;;;;;;;;;;;22.40;94.00;;;;;;5071951;28;19931;-71
2023/04/22 13:41:56;;;;;;;;;;;22.30;93.80;;;;;;5072623;28;20361;-69
2023/04/22 13:44:22;;;;;;;;;;;22.20;94.50;;;;;;5051698;28;20011;-70
2023/04/22 13:46:47;;;;;;;;;;;22.00;94.50;;;;;;5071611;28;19955;-70
2023/04/22 13:49:13;;;;;;;;;;;21.80;93.60;;;;;;5054531;28;19925;-70
2023/04/22 13:51:42;;;;;;;;;;;21.50;94.20;;;;;;5071263;28;19925;-71
2023/04/22 13:54:07;;;;;;;;;;;21.20;94.50;;;;;;5072380;28;19931;-70
2023/04/22 13:56:33;;;;;;;;;;;21.00;95.00;;;;;;5072266;28;19925;-70
2023/04/22 13:58:58;;;;;;;;;;;20.80;95.40;;;;;;5054432;28;19947;-70
2023/04/22 14:01:24;;;;;;;;;;;20.70;95.50;;;;;;5051734;28;19947;-70
2023/04/22 14:03:50;;;;;;;;;;;20.60;96.00;;;;;;5072616;28;19985;-70
2023/04/22 14:06:16;;;;;;;;;;;20.50;96.50;;;;;;5073119;28;19925;-70
2023/04/22 14:08:41;;;;;;;;;;;20.40;96.00;;;;;;5037047;28;20015;-70
2023/04/22 14:11:07;;;;;;;;;;;20.40;96.70;;;;;;5055802;28;20381;-70
2023/04/22 14:13:33;;;;;;;;;;;20.30;96.70;;;;;;5058346;28;19978;-70
2023/04/22 14:16:01;;;;;;;;;;;20.30;97.00;;;;;;5071939;28;20000;-70